sensor_id;sensor_type;location;lat;lon;timestamp;pressure;altitude;pressure_sealevel;temperature;humidity
11011;BME280;5558;42.702;23.178;2024-03-23T00:53:09;93668.06;;;2.66;100.00
11011;BME280;5558;42.702;23.178;2024-03-23T00:55:35;93677.81;;;2.59;100.00
11011;BME280;5558;42.702;23.178;2024-03-23T00:58:02;93671.63;;;2.71;100.00
11011;BME280;5558;42.702;23.178;2024-03-23T01:00:27;93678.66;;;2.53;100.00
11011;BME280;5558;42.702;23.178;2024-03-23T01:02:54;93676.78;;;2.10;100.00
11011;BME280;5558;42.702;23.178;2024-03-23T01:05:20;93675.84;;;2.29;100.00
11011;BME280;5558;42.702;23.178;2024-03-23T01:07:47;93638.22;;;2.12;100.00
11011;BME280;5558;42.702;23.178;2024-03-23T01:10:14;93670.00;;;2.52;100.00
11011;BME280;5558;42.702;23.178;2024-03-23T01:12:41;93671.84;;;2.52;100.00
11011;BME280;5558;42.702;23.178;2024-03-23T01:15:07;93667.75;;;2.56;100.00
11011;BME280;5558;42.702;23.178;2024-03-23T01:17:34;93672.44;;;2.72;100.00
11011;BME280;5558;42.702;23.178;2024-03-23T01:20:00;93672.22;;;2.73;100.00
11011;BME280;5558;42.702;23.178;2024-03-23T01:22:26;93674.75;;;2.62;100.00
11011;BME280;5558;42.702;23.178;2024-03-23T01:24:52;93673.81;;;2.74;100.00
11011;BME280;5558;42.702;23.178;2024-03-23T01:27:20;93669.19;;;2.76;100.00
11011;BME280;5558;42.702;23.178;2024-03-23T01:29:46;93657.84;;;2.64;100.00
11011;BME280;5558;42.702;23.178;2024-03-23T01:32:12;93672.06;;;2.68;100.00
11011;BME280;5558;42.702;23.178;2024-03-23T01:34:38;93674.47;;;2.88;100.00
11011;BME280;5558;42.702;23.178;2024-03-23T01:37:05;93671.34;;;2.79;100.00
11011;BME280;5558;42.702;23.178;2024-03-23T01:39:30;93673.22;;;2.54;100.00
11011;BME280;5558;42.702;23.178;2024-03-23T01:41:57;93665.59;;;2.53;100.00
11011;BME280;5558;42.702;23.178;2024-03-23T01:44:24;93668.78;;;2.55;100.00
11011;BME280;5558;42.702;23.178;2024-03-23T01:46:50;93669.00;;;2.28;100.00
11011;BME280;5558;42.702;23.178;2024-03-23T01:49:17;93662.25;;;2.21;100.00
11011;BME280;5558;42.702;23.178;2024-03-23T01:51:44;93670.50;;;2.42;100.00
11011;BME280;5558;42.702;23.178;2024-03-23T01:54:10;93659.78;;;2.50;100.00
11011;BME280;5558;42.702;23.178;2024-03-23T01:56:37;93674.69;;;2.68;100.00
11011;BME280;5558;42.702;23.178;2024-03-23T01:59:03;93667.00;;;2.73;100.00
11011;BME280;5558;42.702;23.178;2024-03-23T02:01:32;93682.13;;;2.89;100.00
11011;BME280;5558;42.702;23.178;2024-03-23T02:03:58;93673.69;;;2.87;100.00
11011;BME280;5558;42.702;23.178;2024-03-23T02:06:25;93670.88;;;2.89;100.00
11011;BME280;5558;42.702;23.178;2024-03-23T02:08:50;93671.16;;;2.99;100.00
11011;BME280;5558;42.702;23.178;2024-03-23T02:11:17;93667.38;;;2.77;100.00
11011;BME280;5558;42.702;23.178;2024-03-23T02:13:43;93673.69;;;2.87;100.00
11011;BME280;5558;42.702;23.178;2024-03-23T02:16:10;93671.84;;;2.70;100.00
11011;BME280;5558;42.702;23.178;2024-03-23T02:18:37;93672.59;;;2.77;100.00
11011;BME280;5558;42.702;23.178;2024-03-23T02:21:04;93668.28;;;2.46;100.00
11011;BME280;5558;42.702;23.178;2024-03-23T02:23:31;93676.19;;;2.58;100.00
11011;BME280;5558;42.702;23.178;2024-03-23T02:25:58;93679.25;;;2.55;100.00
11011;BME280;5558;42.702;23.178;2024-03-23T02:28:23;93675.97;;;2.59;100.00
11011;BME280;5558;42.702;23.178;2024-03-23T02:30:50;93679.53;;;2.65;100.00
11011;BME280;5558;42.702;23.178;2024-03-23T02:33:16;93681.53;;;2.44;100.00
11011;BME280;5558;42.702;23.178;2024-03-23T02:35:43;93685.06;;;2.57;100.00
11011;BME280;5558;42.702;23.178;2024-03-23T02:38:09;93677.97;;;2.64;100.00
11011;BME280;5558;42.702;23.178;2024-03-23T02:40:37;93667.13;;;2.60;100.00
11011;BME280;5558;42.702;23.178;2024-03-23T02:43:03;93669.47;;;2.68;100.00
11011;BME280;5558;42.702;23.178;2024-03-23T02:45:30;93668.66;;;2.68;100.00
11011;BME280;5558;42.702;23.178;2024-03-23T02:47:55;93667.34;;;2.59;100.00
11011;BME280;5558;42.702;23.178;2024-03-23T02:50:22;93674.16;;;2.60;100.00
11011;BME280;5558;42.702;23.178;2024-03-23T02:52:48;93661.03;;;2.66;100.00
11011;BME280;5558;42.702;23.178;2024-03-23T02:55:15;93664.09;;;2.63;100.00
11011;BME280;5558;42.702;23.178;2024-03-23T02:57:42;93671.78;;;2.58;100.00
11011;BME280;5558;42.702;23.178;2024-03-23T03:00:09;93672.31;;;2.42;100.00
11011;BME280;5558;42.702;23.178;2024-03-23T03:02:36;93679.75;;;2.45;100.00
11011;BME280;5558;42.702;23.178;2024-03-23T03:05:04;93663.16;;;2.33;100.00
11011;BME280;5558;42.702;23.178;2024-03-23T03:07:30;93666.78;;;2.32;100.00
11011;BME280;5558;42.702;23.178;2024-03-23T03:09:57;93658.31;;;2.36;100.00
11011;BME280;5558;42.702;23.178;2024-03-23T03:12:24;93664.63;;;2.47;100.00
11011;BME280;5558;42.702;23.178;2024-03-23T03:14:52;93666.38;;;2.35;100.00
11011;BME280;5558;42.702;23.178;2024-03-23T03:17:17;93667.75;;;2.37;100.00
11011;BME280;5558;42.702;23.178;2024-03-23T03:19:44;93658.88;;;2.38;100.00
11011;BME280;5558;42.702;23.178;2024-03-23T03:22:11;93660.94;;;2.36;100.00
11011;BME280;5558;42.702;23.178;2024-03-23T03:24:37;93664.09;;;2.38;100.00
11011;BME280;5558;42.702;23.178;2024-03-23T03:27:03;93664.91;;;2.39;100.00
11011;BME280;5558;42.702;23.178;2024-03-23T03:29:30;93669.53;;;2.37;100.00
11011;BME280;5558;42.702;23.178;2024-03-23T03:32:02;93665.13;;;2.37;100.00
11011;BME280;5558;42.702;23.178;2024-03-23T03:34:28;93663.16;;;2.33;100.00
11011;BME280;5558;42.702;23.178;2024-03-23T03:36:54;93667.31;;;2.16;100.00
11011;BME280;5558;42.702;23.178;2024-03-23T03:39:21;93662.75;;;2.11;100.00
11011;BME280;5558;42.702;23.178;2024-03-23T03:41:48;93661.06;;;2.17;100.00
11011;BME280;5558;42.702;23.178;2024-03-23T03:44:14;93659.13;;;2.12;100.00
11011;BME280;5558;42.702;23.178;2024-03-23T03:46:40;93668.97;;;2.10;100.00
11011;BME280;5558;42.702;23.178;2024-03-23T03:49:08;93672.84;;;2.01;100.00
11011;BME280;5558;42.702;23.178;2024-03-23T03:51:34;93665.59;;;1.79;100.00
11011;BME280;5558;42.702;23.178;2024-03-23T03:54:00;93670.22;;;2.01;100.00
11011;BME280;5558;42.702;23.178;2024-03-23T03:56:26;93670.97;;;2.08;100.00
11011;BME280;5558;42.702;23.178;2024-03-23T03:58:53;93672.97;;;2.13;100.00
11011;BME280;5558;42.702;23.178;2024-03-23T04:01:18;93670.16;;;2.14;100.00
11011;BME280;5558;42.702;23.178;2024-03-23T04:03:45;93669.94;;;2.16;100.00
11011;BME280;5558;42.702;23.178;2024-03-23T04:06:18;93672.75;;;2.14;100.00
11011;BME280;5558;42.702;23.178;2024-03-23T04:08:45;93672.66;;;2.27;100.00
11011;BME280;5558;42.702;23.178;2024-03-23T04:11:10;93662.34;;;2.32;100.00
11011;BME280;5558;42.702;23.178;2024-03-23T04:13:37;93674.22;;;2.35;100.00
11011;BME280;5558;42.702;23.178;2024-03-23T04:16:03;93681.44;;;2.33;100.00
11011;BME280;5558;42.702;23.178;2024-03-23T04:18:30;93675.16;;;2.16;100.00
11011;BME280;5558;42.702;23.178;2024-03-23T04:20:56;93676.38;;;2.13;100.00
11011;BME280;5558;42.702;23.178;2024-03-23T04:23:24;93671.31;;;2.18;100.00
11011;BME280;5558;42.702;23.178;2024-03-23T04:25:49;93672.91;;;2.19;100.00
11011;BME280;5558;42.702;23.178;2024-03-23T04:28:17;93675.97;;;2.16;100.00
11011;BME280;5558;42.702;23.178;2024-03-23T04:30:43;93677.44;;;2.06;100.00
11011;BME280;5558;42.702;23.178;2024-03-23T04:33:09;93672.72;;;2.21;100.00
11011;BME280;5558;42.702;23.178;2024-03-23T04:35:35;93677.97;;;2.39;100.00
11011;BME280;5558;42.702;23.178;2024-03-23T04:38:02;93671.78;;;2.58;100.00
11011;BME280;5558;42.702;23.178;2024-03-23T04:40:30;93679.66;;;2.94;100.00
11011;BME280;5558;42.702;23.178;2024-03-23T04:42:57;93686.06;;;3.64;100.00
11011;BME280;5558;42.702;23.178;2024-03-23T04:45:23;93688.22;;;4.38;100.00
11011;BME280;5558;42.702;23.178;2024-03-23T04:47:50;93677.81;;;5.24;99.59
11011;BME280;5558;42.702;23.178;2024-03-23T04:50:17;93683.81;;;6.15;88.35
11011;BME280;5558;42.702;23.178;2024-03-23T04:52:44;93682.28;;;7.18;77.22
11011;BME280;5558;42.702;23.178;2024-03-23T04:55:10;93681.31;;;8.16;66.54
11011;BME280;5558;42.702;23.178;2024-03-23T04:57:40;93680.28;;;9.12;60.73
11011;BME280;5558;42.702;23.178;2024-03-23T05:00:07;93679.06;;;9.86;56.33
11011;BME280;5558;42.702;23.178;2024-03-23T05:02:43;93681.94;;;10.61;52.21
11011;BME280;5558;42.702;23.178;2024-03-23T05:05:09;93676.34;;;11.23;49.99
11011;BME280;5558;42.702;23.178;2024-03-23T05:07:36;93678.50;;;12.05;47.83
11011;BME280;5558;42.702;23.178;2024-03-23T05:10:03;93655.59;;;12.68;45.34
11011;BME280;5558;42.702;23.178;2024-03-23T05:12:30;93675.31;;;13.29;43.56
11011;BME280;5558;42.702;23.178;2024-03-23T05:14:57;93675.81;;;13.83;42.29
11011;BME280;5558;42.702;23.178;2024-03-23T05:17:23;93677.13;;;14.04;41.33
11011;BME280;5558;42.702;23.178;2024-03-23T05:19:49;93673.84;;;14.54;40.17
11011;BME280;5558;42.702;23.178;2024-03-23T05:22:16;93677.44;;;14.82;39.17
11011;BME280;5558;42.702;23.178;2024-03-23T05:24:41;93667.34;;;15.30;38.67
11011;BME280;5558;42.702;23.178;2024-03-23T05:27:08;93667.56;;;15.93;37.46
11011;BME280;5558;42.702;23.178;2024-03-23T05:29:34;93671.03;;;16.07;36.62
11011;BME280;5558;42.702;23.178;2024-03-23T05:32:02;93672.56;;;15.67;37.01
11011;BME280;5558;42.702;23.178;2024-03-23T05:34:28;93680.38;;;14.01;39.73
11011;BME280;5558;42.702;23.178;2024-03-23T05:36:54;93679.38;;;14.39;39.00
11011;BME280;5558;42.702;23.178;2024-03-23T05:39:20;93673.84;;;15.37;37.79
11011;BME280;5558;42.702;23.178;2024-03-23T05:41:47;93673.25;;;15.45;37.73
11011;BME280;5558;42.702;23.178;2024-03-23T05:44:13;93683.56;;;16.06;36.24
11011;BME280;5558;42.702;23.178;2024-03-23T05:46:40;93674.75;;;15.33;37.62
11011;BME280;5558;42.702;23.178;2024-03-23T05:49:07;93675.97;;;15.08;38.01
11011;BME280;5558;42.702;23.178;2024-03-23T05:51:34;93681.91;;;14.49;37.97
11011;BME280;5558;42.702;23.178;2024-03-23T05:54:00;93679.84;;;15.16;37.18
11011;BME280;5558;42.702;23.178;2024-03-23T05:56:27;93681.13;;;14.86;37.47
11011;BME280;5558;42.702;23.178;2024-03-23T05:58:52;93678.50;;;15.00;37.71
11011;BME280;5558;42.702;23.178;2024-03-23T06:01:19;93676.78;;;14.34;38.79
11011;BME280;5558;42.702;23.178;2024-03-23T06:03:45;93684.28;;;14.51;38.76
11011;BME280;5558;42.702;23.178;2024-03-23T06:06:13;93673.50;;;13.95;39.27
11011;BME280;5558;42.702;23.178;2024-03-23T06:08:38;93672.16;;;13.74;39.69
11011;BME280;5558;42.702;23.178;2024-03-23T06:11:05;93668.06;;;15.03;38.54
11011;BME280;5558;42.702;23.178;2024-03-23T06:13:31;93672.59;;;14.28;38.72
11011;BME280;5558;42.702;23.178;2024-03-23T06:15:59;93666.38;;;13.91;39.63
11011;BME280;5558;42.702;23.178;2024-03-23T06:18:25;93667.22;;;13.39;40.29
11011;BME280;5558;42.702;23.178;2024-03-23T06:20:52;93673.28;;;13.16;41.44
11011;BME280;5558;42.702;23.178;2024-03-23T06:23:19;93674.38;;;13.91;40.38
11011;BME280;5558;42.702;23.178;2024-03-23T06:25:46;93677.09;;;13.62;40.18
11011;BME280;5558;42.702;23.178;2024-03-23T06:28:12;93683.34;;;12.85;41.43
11011;BME280;5558;42.702;23.178;2024-03-23T06:30:39;93680.78;;;12.70;42.48
11011;BME280;5558;42.702;23.178;2024-03-23T06:33:05;93675.22;;;12.67;41.72
11011;BME280;5558;42.702;23.178;2024-03-23T06:35:31;93672.16;;;13.22;41.77
11011;BME280;5558;42.702;23.178;2024-03-23T06:37:57;93673.22;;;13.21;41.46
11011;BME280;5558;42.702;23.178;2024-03-23T06:40:25;93672.41;;;14.43;39.69
11011;BME280;5558;42.702;23.178;2024-03-23T06:42:51;93672.84;;;14.32;39.60
11011;BME280;5558;42.702;23.178;2024-03-23T06:45:18;93674.47;;;14.84;39.66
11011;BME280;5558;42.702;23.178;2024-03-23T06:47:48;93686.16;;;14.50;39.64
11011;BME280;5558;42.702;23.178;2024-03-23T06:50:15;93677.72;;;14.99;39.42
11011;BME280;5558;42.702;23.178;2024-03-23T06:52:41;93670.09;;;15.25;38.77
11011;BME280;5558;42.702;23.178;2024-03-23T06:55:08;93671.19;;;15.97;36.96
11011;BME280;5558;42.702;23.178;2024-03-23T06:57:35;93660.25;;;15.84;37.09
11011;BME280;5558;42.702;23.178;2024-03-23T07:00:02;93673.31;;;15.08;38.19
11011;BME280;5558;42.702;23.178;2024-03-23T07:02:30;93673.84;;;14.54;39.26
11011;BME280;5558;42.702;23.178;2024-03-23T07:04:56;93669.75;;;13.25;41.56
11011;BME280;5558;42.702;23.178;2024-03-23T07:07:22;93667.22;;;12.77;42.62
11011;BME280;5558;42.702;23.178;2024-03-23T07:09:49;93663.72;;;12.43;44.54
11011;BME280;5558;42.702;23.178;2024-03-23T07:12:14;93643.06;;;11.81;45.12
11011;BME280;5558;42.702;23.178;2024-03-23T07:14:42;93649.78;;;11.53;46.62
11011;BME280;5558;42.702;23.178;2024-03-23T07:17:08;93658.34;;;11.10;48.00
11011;BME280;5558;42.702;23.178;2024-03-23T07:19:36;93652.88;;;9.79;51.19
11011;BME280;5558;42.702;23.178;2024-03-23T07:22:02;93662.03;;;10.24;52.60
11011;BME280;5558;42.702;23.178;2024-03-23T07:24:28;93664.59;;;9.32;54.98
11011;BME280;5558;42.702;23.178;2024-03-23T07:26:56;93648.16;;;9.25;56.86
11011;BME280;5558;42.702;23.178;2024-03-23T07:29:23;93652.41;;;9.93;55.57
11011;BME280;5558;42.702;23.178;2024-03-23T07:31:50;93643.63;;;9.20;58.66
11011;BME280;5558;42.702;23.178;2024-03-23T07:34:17;93650.75;;;9.15;58.98
11011;BME280;5558;42.702;23.178;2024-03-23T07:36:43;93654.59;;;8.97;60.28
11011;BME280;5558;42.702;23.178;2024-03-23T07:39:09;93646.72;;;9.54;58.35
11011;BME280;5558;42.702;23.178;2024-03-23T07:41:35;93644.69;;;9.81;56.04
11011;BME280;5558;42.702;23.178;2024-03-23T07:44:02;93642.47;;;10.15;55.48
11011;BME280;5558;42.702;23.178;2024-03-23T07:46:27;93645.81;;;10.05;55.30
11011;BME280;5558;42.702;23.178;2024-03-23T07:48:55;93645.91;;;10.25;57.11
11011;BME280;5558;42.702;23.178;2024-03-23T07:51:22;93645.97;;;10.60;54.51
11011;BME280;5558;42.702;23.178;2024-03-23T07:53:49;93644.09;;;10.66;54.56
11011;BME280;5558;42.702;23.178;2024-03-23T07:56:16;93641.59;;;9.99;55.51
11011;BME280;5558;42.702;23.178;2024-03-23T07:58:44;93640.19;;;9.71;56.46
11011;BME280;5558;42.702;23.178;2024-03-23T08:01:11;93633.19;;;10.22;58.62
11011;BME280;5558;42.702;23.178;2024-03-23T08:03:39;93641.16;;;10.32;55.29
11011;BME280;5558;42.702;23.178;2024-03-23T08:06:10;93639.03;;;10.24;56.16
11011;BME280;5558;42.702;23.178;2024-03-23T08:08:37;93635.31;;;10.30;56.97
11011;BME280;5558;42.702;23.178;2024-03-23T08:11:03;93632.19;;;10.53;56.71
11011;BME280;5558;42.702;23.178;2024-03-23T08:13:30;93641.41;;;10.31;56.60
11011;BME280;5558;42.702;23.178;2024-03-23T08:15:57;93636.59;;;10.08;58.05
11011;BME280;5558;42.702;23.178;2024-03-23T08:18:24;93631.13;;;10.39;56.55
11011;BME280;5558;42.702;23.178;2024-03-23T08:20:56;93627.44;;;10.60;55.88
11011;BME280;5558;42.702;23.178;2024-03-23T08:23:25;93625.25;;;10.17;59.27
11011;BME280;5558;42.702;23.178;2024-03-23T08:25:51;93624.22;;;10.28;57.18
11011;BME280;5558;42.702;23.178;2024-03-23T08:28:18;93623.19;;;10.54;57.27
11011;BME280;5558;42.702;23.178;2024-03-23T08:30:43;93617.88;;;10.54;56.17
11011;BME280;5558;42.702;23.178;2024-03-23T08:33:10;93624.25;;;10.48;57.46
11011;BME280;5558;42.702;23.178;2024-03-23T08:35:36;93620.78;;;10.28;59.95
11011;BME280;5558;42.702;23.178;2024-03-23T08:38:03;93620.00;;;10.62;57.46
11011;BME280;5558;42.702;23.178;2024-03-23T08:40:30;93615.22;;;10.74;55.60
11011;BME280;5558;42.702;23.178;2024-03-23T08:42:56;93612.53;;;11.04;55.09
11011;BME280;5558;42.702;23.178;2024-03-23T08:45:22;93610.94;;;11.19;56.93
11011;BME280;5558;42.702;23.178;2024-03-23T08:47:49;93606.41;;;11.24;54.52
11011;BME280;5558;42.702;23.178;2024-03-23T08:50:14;93607.97;;;11.35;55.59
11011;BME280;5558;42.702;23.178;2024-03-23T08:52:41;93599.69;;;11.67;55.38
11011;BME280;5558;42.702;23.178;2024-03-23T08:55:07;93574.03;;;11.42;52.67
11011;BME280;5558;42.702;23.178;2024-03-23T08:57:36;93595.13;;;11.62;53.64
11011;BME280;5558;42.702;23.178;2024-03-23T09:00:02;93588.44;;;11.85;53.35
11011;BME280;5558;42.702;23.178;2024-03-23T09:02:31;93589.72;;;11.92;52.27
11011;BME280;5558;42.702;23.178;2024-03-23T09:04:57;93590.22;;;11.94;53.16
11011;BME280;5558;42.702;23.178;2024-03-23T09:07:29;93588.31;;;12.05;53.26
11011;BME280;5558;42.702;23.178;2024-03-23T09:09:55;93583.63;;;11.92;53.84
11011;BME280;5558;42.702;23.178;2024-03-23T09:12:21;93578.72;;;12.14;52.89
11011;BME280;5558;42.702;23.178;2024-03-23T09:14:49;93572.69;;;12.42;51.85
11011;BME280;5558;42.702;23.178;2024-03-23T09:17:16;93577.06;;;12.23;51.61
11011;BME280;5558;42.702;23.178;2024-03-23T09:19:41;93563.72;;;12.33;52.45
11011;BME280;5558;42.702;23.178;2024-03-23T09:22:08;93568.91;;;12.48;52.17
11011;BME280;5558;42.702;23.178;2024-03-23T09:24:34;93567.00;;;12.20;50.89
11011;BME280;5558;42.702;23.178;2024-03-23T09:27:01;93554.25;;;12.56;50.46
11011;BME280;5558;42.702;23.178;2024-03-23T09:29:28;93552.97;;;12.53;49.75
11011;BME280;5558;42.702;23.178;2024-03-23T09:31:56;93545.16;;;12.62;49.91
11011;BME280;5558;42.702;23.178;2024-03-23T09:34:22;93542.44;;;12.67;48.95
11011;BME280;5558;42.702;23.178;2024-03-23T09:36:51;93526.34;;;12.87;49.99
11011;BME280;5558;42.702;23.178;2024-03-23T09:39:17;93535.56;;;12.94;48.05
11011;BME280;5558;42.702;23.178;2024-03-23T09:41:44;93529.88;;;13.06;46.27
11011;BME280;5558;42.702;23.178;2024-03-23T09:44:09;93529.81;;;13.11;47.41
11011;BME280;5558;42.702;23.178;2024-03-23T09:46:36;93523.78;;;13.29;47.96
11011;BME280;5558;42.702;23.178;2024-03-23T09:49:07;93519.25;;;13.29;46.83
11011;BME280;5558;42.702;23.178;2024-03-23T09:51:35;93524.56;;;13.29;45.94
11011;BME280;5558;42.702;23.178;2024-03-23T09:54:01;93508.19;;;13.22;45.48
11011;BME280;5558;42.702;23.178;2024-03-23T09:56:28;93512.75;;;13.40;46.35
11011;BME280;5558;42.702;23.178;2024-03-23T09:59:00;93505.59;;;13.60;44.43
11011;BME280;5558;42.702;23.178;2024-03-23T10:01:27;93504.16;;;13.86;43.08
11011;BME280;5558;42.702;23.178;2024-03-23T10:03:54;93492.16;;;13.88;43.83
11011;BME280;5558;42.702;23.178;2024-03-23T10:06:22;93494.47;;;13.95;41.85
11011;BME280;5558;42.702;23.178;2024-03-23T10:08:50;93494.59;;;14.03;42.02
11011;BME280;5558;42.702;23.178;2024-03-23T10:11:17;93481.81;;;14.05;42.01
11011;BME280;5558;42.702;23.178;2024-03-23T10:13:43;93489.03;;;14.18;42.70
11011;BME280;5558;42.702;23.178;2024-03-23T10:16:11;93486.38;;;14.37;41.84
11011;BME280;5558;42.702;23.178;2024-03-23T10:18:37;93478.00;;;14.43;41.22
11011;BME280;5558;42.702;23.178;2024-03-23T10:21:08;93474.75;;;14.46;41.74
11011;BME280;5558;42.702;23.178;2024-03-23T10:23:36;93478.13;;;14.52;40.81
11011;BME280;5558;42.702;23.178;2024-03-23T10:26:14;93461.88;;;14.67;40.23
11011;BME280;5558;42.702;23.178;2024-03-23T10:28:50;93464.75;;;14.71;39.12
11011;BME280;5558;42.702;23.178;2024-03-23T10:31:18;93474.03;;;14.87;34.94
11011;BME280;5558;42.702;23.178;2024-03-23T10:33:45;93460.16;;;15.03;33.27
11011;BME280;5558;42.702;23.178;2024-03-23T10:36:12;93459.44;;;15.25;34.04
11011;BME280;5558;42.702;23.178;2024-03-23T10:38:40;93453.59;;;15.36;32.61
11011;BME280;5558;42.702;23.178;2024-03-23T10:41:08;93430.91;;;15.25;33.81
11011;BME280;5558;42.702;23.178;2024-03-23T10:43:35;93441.94;;;15.46;33.91
11011;BME280;5558;42.702;23.178;2024-03-23T10:46:02;93443.09;;;15.67;32.57
11011;BME280;5558;42.702;23.178;2024-03-23T10:48:28;93441.56;;;15.52;32.64
11011;BME280;5558;42.702;23.178;2024-03-23T10:50:55;93432.47;;;15.53;31.85
11011;BME280;5558;42.702;23.178;2024-03-23T10:53:21;93427.75;;;15.10;31.79
11011;BME280;5558;42.702;23.178;2024-03-23T10:55:54;93423.69;;;15.26;32.02
11011;BME280;5558;42.702;23.178;2024-03-23T10:58:23;93371.88;;;15.18;33.98
11011;BME280;5558;42.702;23.178;2024-03-23T11:00:51;93406.53;;;15.67;33.01
11011;BME280;5558;42.702;23.178;2024-03-23T11:03:32;93407.16;;;15.86;31.86
11011;BME280;5558;42.702;23.178;2024-03-23T11:05:59;93392.38;;;16.03;32.18
11011;BME280;5558;42.702;23.178;2024-03-23T11:08:33;93400.19;;;15.77;30.78
11011;BME280;5558;42.702;23.178;2024-03-23T11:11:19;93391.25;;;15.81;31.09
11011;BME280;5558;42.702;23.178;2024-03-23T11:13:47;93380.88;;;15.80;32.27
11011;BME280;5558;42.702;23.178;2024-03-23T11:16:16;93378.91;;;15.85;31.25
11011;BME280;5558;42.702;23.178;2024-03-23T11:18:42;93374.09;;;15.74;30.04
11011;BME280;5558;42.702;23.178;2024-03-23T11:21:09;93334.38;;;15.72;31.70
11011;BME280;5558;42.702;23.178;2024-03-23T11:23:35;93364.94;;;16.11;31.19
11011;BME280;5558;42.702;23.178;2024-03-23T11:26:01;93367.41;;;16.29;30.61
11011;BME280;5558;42.702;23.178;2024-03-23T11:28:30;93365.53;;;16.30;29.48
11011;BME280;5558;42.702;23.178;2024-03-23T11:30:57;93364.63;;;16.43;30.60
11011;BME280;5558;42.702;23.178;2024-03-23T11:33:23;93332.28;;;16.44;28.93
11011;BME280;5558;42.702;23.178;2024-03-23T11:35:49;93346.97;;;16.55;28.37
11011;BME280;5558;42.702;23.178;2024-03-23T11:38:17;93337.41;;;16.63;28.44
11011;BME280;5558;42.702;23.178;2024-03-23T11:40:45;93340.28;;;16.75;27.92
11011;BME280;5558;42.702;23.178;2024-03-23T11:43:13;93339.34;;;16.71;28.67
11011;BME280;5558;42.702;23.178;2024-03-23T11:45:43;93332.59;;;16.82;28.77
11011;BME280;5558;42.702;23.178;2024-03-23T11:48:10;93329.63;;;16.83;27.85
11011;BME280;5558;42.702;23.178;2024-03-23T11:50:38;93326.47;;;16.81;27.19
11011;BME280;5558;42.702;23.178;2024-03-23T11:53:15;93325.03;;;16.75;27.15
11011;BME280;5558;42.702;23.178;2024-03-23T11:55:46;93298.44;;;16.62;27.40
11011;BME280;5558;42.702;23.178;2024-03-23T11:58:12;93313.25;;;16.76;27.87
11011;BME280;5558;42.702;23.178;2024-03-23T12:00:39;93301.50;;;16.86;27.87
11011;BME280;5558;42.702;23.178;2024-03-23T12:03:07;93294.91;;;17.00;28.22
11011;BME280;5558;42.702;23.178;2024-03-23T12:05:36;93290.81;;;17.12;28.24
11011;BME280;5558;42.702;23.178;2024-03-23T12:08:15;93288.78;;;17.17;28.11
11011;BME280;5558;42.702;23.178;2024-03-23T12:10:44;93285.63;;;17.15;26.32
11011;BME280;5558;42.702;23.178;2024-03-23T12:13:11;93282.00;;;17.02;27.00
11011;BME280;5558;42.702;23.178;2024-03-23T12:15:37;93254.94;;;16.95;28.00
11011;BME280;5558;42.702;23.178;2024-03-23T12:18:08;93277.00;;;17.10;27.05
11011;BME280;5558;42.702;23.178;2024-03-23T12:20:36;93273.84;;;17.08;27.65
11011;BME280;5558;42.702;23.178;2024-03-23T12:23:06;93268.97;;;17.10;26.30
11011;BME280;5558;42.702;23.178;2024-03-23T12:25:34;93265.81;;;17.16;26.90
11011;BME280;5558;42.702;23.178;2024-03-23T12:28:00;93257.31;;;17.05;26.93
11011;BME280;5558;42.702;23.178;2024-03-23T12:30:27;93261.09;;;17.13;26.27
11011;BME280;5558;42.702;23.178;2024-03-23T12:32:52;93258.88;;;17.24;25.96
11011;BME280;5558;42.702;23.178;2024-03-23T12:35:20;93256.38;;;17.27;26.23
11011;BME280;5558;42.702;23.178;2024-03-23T12:37:46;93247.88;;;17.34;26.98
11011;BME280;5558;42.702;23.178;2024-03-23T12:40:13;93245.84;;;17.14;26.46
11011;BME280;5558;42.702;23.178;2024-03-23T12:42:39;93242.06;;;17.23;25.84
11011;BME280;5558;42.702;23.178;2024-03-23T12:45:06;93241.59;;;17.21;25.93
11011;BME280;5558;42.702;23.178;2024-03-23T12:47:32;93232.13;;;17.24;27.04
11011;BME280;5558;42.702;23.178;2024-03-23T12:49:59;93234.06;;;17.23;27.76
11011;BME280;5558;42.702;23.178;2024-03-23T12:52:26;93230.25;;;17.24;27.16
11011;BME280;5558;42.702;23.178;2024-03-23T12:54:54;93231.19;;;16.85;26.09
11011;BME280;5558;42.702;23.178;2024-03-23T12:57:22;93216.47;;;16.40;26.35
11011;BME280;5558;42.702;23.178;2024-03-23T12:59:49;93198.53;;;16.41;27.37
11011;BME280;5558;42.702;23.178;2024-03-23T13:02:17;93213.25;;;16.77;28.12
11011;BME280;5558;42.702;23.178;2024-03-23T13:04:44;93216.56;;;17.00;27.87
11011;BME280;5558;42.702;23.178;2024-03-23T13:07:10;93207.63;;;17.13;27.65
11011;BME280;5558;42.702;23.178;2024-03-23T13:09:37;93213.09;;;17.17;26.35
11011;BME280;5558;42.702;23.178;2024-03-23T13:12:04;93200.69;;;17.29;26.61
11011;BME280;5558;42.702;23.178;2024-03-23T13:14:30;93198.94;;;17.33;26.38
11011;BME280;5558;42.702;23.178;2024-03-23T13:16:57;93193.13;;;17.14;26.33
11011;BME280;5558;42.702;23.178;2024-03-23T13:19:22;93179.59;;;17.28;27.04
11011;BME280;5558;42.702;23.178;2024-03-23T13:21:52;93185.56;;;17.42;27.79
11011;BME280;5558;42.702;23.178;2024-03-23T13:24:18;93187.59;;;17.45;27.78
11011;BME280;5558;42.702;23.178;2024-03-23T13:26:49;93178.47;;;17.46;26.92
11011;BME280;5558;42.702;23.178;2024-03-23T13:29:15;93176.44;;;17.51;26.94
11011;BME280;5558;42.702;23.178;2024-03-23T13:31:41;93173.75;;;17.60;27.75
11011;BME280;5558;42.702;23.178;2024-03-23T13:34:07;93172.47;;;17.57;27.63
11011;BME280;5558;42.702;23.178;2024-03-23T13:36:34;93164.63;;;17.52;27.62
11011;BME280;5558;42.702;23.178;2024-03-23T13:39:01;93158.03;;;17.50;27.46
11011;BME280;5558;42.702;23.178;2024-03-23T13:41:30;93163.38;;;17.41;27.45
11011;BME280;5558;42.702;23.178;2024-03-23T13:43:57;93152.34;;;17.51;28.19
11011;BME280;5558;42.702;23.178;2024-03-23T13:46:24;93152.97;;;17.57;27.17
11011;BME280;5558;42.702;23.178;2024-03-23T13:48:50;93154.38;;;17.63;28.53
11011;BME280;5558;42.702;23.178;2024-03-23T13:51:23;93146.16;;;17.68;28.18